Time;durP1;ratioP1;P1;durP2;ratioP2;P2;SDS_P1;SDS_P2;PMS_P1;PMS_P2;Temp;Humidity;BMP_temperature;BMP_pressure;BME280_temperature;BME280_humidity;BME280_pressure;Samples;Min_cycle;Max_cycle;Signal;HPM_P1;HPM_P2
2021/05/09 00:02:12;;;;;;;6.47;2.30;;;18.50;99.90;;;;;;5053287;28;20195;-73
2021/05/09 00:04:40;;;;;;;4.47;2.40;;;18.50;99.90;;;;;;5053508;28;20211;-74
2021/05/09 00:07:09;;;;;;;6.47;2.20;;;18.60;99.90;;;;;;5051923;28;20214;-76
2021/05/09 00:09:36;;;;;;;4.03;2.07;;;18.60;99.90;;;;;;5053171;28;20207;-75
2021/05/09 00:12:05;;;;;;;5.73;2.40;;;18.70;99.90;;;;;;5052104;28;20174;-76
2021/05/09 00:14:32;;;;;;;4.57;1.87;;;18.70;99.90;;;;;;5053212;28;20773;-72
2021/05/09 00:17:00;;;;;;;4.43;1.97;;;18.80;99.90;;;;;;5052289;28;20547;-73
2021/05/09 00:19:27;;;;;;;8.60;1.90;;;18.90;99.90;;;;;;5052454;28;20222;-74
2021/05/09 00:21:55;;;;;;;9.30;2.90;;;18.90;99.90;;;;;;5052712;28;20730;-78
2021/05/09 00:24:22;;;;;;;4.93;2.27;;;19.00;99.90;;;;;;5052833;28;20199;-78
2021/05/09 00:26:50;;;;;;;5.43;2.20;;;19.00;99.90;;;;;;5053042;28;20187;-76
2021/05/09 00:29:17;;;;;;;7.43;2.70;;;19.10;99.90;;;;;;5053683;28;20183;-75
2021/05/09 00:31:45;;;;;;;6.47;2.07;;;19.10;99.90;;;;;;5060576;28;20228;-77
2021/05/09 00:34:16;;;;;;;5.83;2.20;;;19.10;99.90;;;;;;5051802;28;20192;-76
2021/05/09 00:36:43;;;;;;;6.37;2.10;;;19.10;99.90;;;;;;5048525;28;20242;-76
2021/05/09 00:39:11;;;;;;;8.33;2.57;;;19.40;99.90;;;;;;5041142;28;20651;-77
2021/05/09 00:41:38;;;;;;;5.23;2.40;;;19.60;99.90;;;;;;5043771;28;20583;-77
2021/05/09 00:44:06;;;;;;;7.03;2.10;;;19.50;99.90;;;;;;5047982;28;20199;-75
2021/05/09 00:46:33;;;;;;;3.63;1.93;;;19.40;99.90;;;;;;5047775;28;20208;-78
2021/05/09 00:49:03;;;;;;;2.70;2.00;;;19.40;99.90;;;;;;5050478;28;20266;-79
2021/05/09 00:51:30;;;;;;;7.53;2.37;;;19.40;99.90;;;;;;5052066;28;20187;-75
2021/05/09 00:53:58;;;;;;;8.23;2.03;;;19.30;99.90;;;;;;5050254;28;20188;-77
2021/05/09 00:56:26;;;;;;;4.73;1.97;;;19.40;99.90;;;;;;5052213;28;20207;-74
2021/05/09 00:58:55;;;;;;;3.47;1.90;;;19.40;99.90;;;;;;5052469;28;20237;-75
2021/05/09 01:01:23;;;;;;;5.17;2.17;;;19.50;99.90;;;;;;5052458;28;20626;-76
2021/05/09 01:03:53;;;;;;;4.67;2.30;;;19.50;99.90;;;;;;5050661;28;20270;-76
2021/05/09 01:06:20;;;;;;;5.90;2.20;;;19.60;99.90;;;;;;5032495;28;20549;-75
2021/05/09 01:08:48;;;;;;;8.23;2.57;;;19.60;99.90;;;;;;5049318;28;20263;-76
2021/05/09 01:11:15;;;;;;;5.20;2.23;;;19.60;99.90;;;;;;5052273;28;20642;-76
2021/05/09 01:13:43;;;;;;;5.27;2.00;;;19.60;99.90;;;;;;5052067;28;20241;-76
2021/05/09 01:16:10;;;;;;;6.50;2.30;;;19.60;99.90;;;;;;5052754;28;20211;-77
2021/05/09 01:18:37;;;;;;;3.20;2.03;;;19.60;99.90;;;;;;5051299;28;20211;-76
2021/05/09 01:21:05;;;;;;;5.83;2.47;;;19.60;99.90;;;;;;5051864;28;20172;-75
2021/05/09 01:23:32;;;;;;;4.00;2.07;;;19.60;99.90;;;;;;5052504;28;20172;-76
2021/05/09 01:25:59;;;;;;;4.60;2.40;;;19.60;99.90;;;;;;5051314;28;20171;-75
2021/05/09 01:28:27;;;;;;;4.97;1.90;;;19.60;99.90;;;;;;5047096;28;20195;-77
2021/05/09 01:30:54;;;;;;;4.40;2.43;;;19.70;99.90;;;;;;5040335;28;20610;-76
2021/05/09 01:33:21;;;;;;;5.03;2.20;;;19.80;99.90;;;;;;5051541;28;20180;-74
2021/05/09 01:35:49;;;;;;;3.70;2.20;;;19.80;99.90;;;;;;5039320;28;20208;-74
2021/05/09 01:38:16;;;;;;;7.53;2.30;;;19.80;99.90;;;;;;5045372;28;20302;-76
2021/05/09 01:40:44;;;;;;;5.67;2.30;;;19.80;99.90;;;;;;5051984;28;20196;-75
2021/05/09 01:43:11;;;;;;;7.13;2.27;;;19.90;99.90;;;;;;5050411;28;20211;-75
2021/05/09 01:45:38;;;;;;;5.13;2.13;;;20.00;99.90;;;;;;5047754;28;20720;-76
2021/05/09 01:48:06;;;;;;;4.63;2.83;;;20.10;99.90;;;;;;5048935;28;20179;-76
2021/05/09 01:50:34;;;;;;;3.47;2.10;;;20.10;99.90;;;;;;5049222;28;20697;-76
2021/05/09 01:53:03;;;;;;;6.57;2.83;;;20.20;99.90;;;;;;5050886;28;20179;-76
2021/05/09 01:55:30;;;;;;;8.47;2.40;;;20.20;99.90;;;;;;5051380;28;20223;-76
2021/05/09 01:57:58;;;;;;;9.00;2.60;;;20.30;99.90;;;;;;5043255;28;20188;-74
2021/05/09 02:00:26;;;;;;;3.67;2.10;;;20.40;99.90;;;;;;5049438;28;20184;-78
2021/05/09 02:02:53;;;;;;;5.77;2.37;;;20.50;99.90;;;;;;5048902;28;20202;-76
2021/05/09 02:05:20;;;;;;;4.03;2.03;;;20.50;99.90;;;;;;5049942;28;20262;-76
2021/05/09 02:07:48;;;;;;;3.83;2.07;;;20.50;99.90;;;;;;5049409;28;20597;-75
2021/05/09 02:10:15;;;;;;;8.87;2.30;;;20.50;99.90;;;;;;5051644;28;20181;-77
2021/05/09 02:12:42;;;;;;;3.57;2.13;;;20.50;99.90;;;;;;5052563;28;20733;-77
2021/05/09 02:15:11;;;;;;;7.23;2.73;;;20.40;99.90;;;;;;5051902;28;20237;-75
2021/05/09 02:17:41;;;;;;;2.70;1.93;;;20.50;99.90;;;;;;5054223;28;20180;-78
2021/05/09 02:20:09;;;;;;;5.83;2.37;;;20.50;99.90;;;;;;5070912;28;20278;-76
2021/05/09 02:22:38;;;;;;;5.57;2.60;;;20.60;99.90;;;;;;5060171;28;20245;-76
2021/05/09 02:25:07;;;;;;;3.90;2.30;;;20.60;99.90;;;;;;5057269;28;20183;-77
2021/05/09 02:27:34;;;;;;;5.37;2.30;;;20.50;99.90;;;;;;5059786;28;20168;-76
2021/05/09 02:30:01;;;;;;;6.10;2.30;;;20.60;99.90;;;;;;5067690;28;20237;-73
2021/05/09 02:32:29;;;;;;;4.67;1.97;;;20.60;99.90;;;;;;5056205;28;20223;-74
2021/05/09 02:34:56;;;;;;;4.30;2.67;;;20.60;99.90;;;;;;5059586;28;22213;-77
2021/05/09 02:37:24;;;;;;;4.17;2.63;;;20.70;99.90;;;;;;5056699;28;20325;-75
2021/05/09 02:39:51;;;;;;;9.83;2.23;;;20.60;99.90;;;;;;5074730;28;20175;-79
2021/05/09 02:42:19;;;;;;;3.23;2.07;;;20.60;99.90;;;;;;5073733;28;20179;-77
2021/05/09 02:44:46;;;;;;;8.70;2.63;;;20.70;99.90;;;;;;5067883;28;20578;-77
2021/05/09 02:47:27;;;;;;;8.70;2.60;;;20.60;99.90;;;;;;5069526;28;20306;-72
2021/05/09 02:49:59;;;;;;;4.47;2.37;;;20.60;99.90;;;;;;5075014;28;20206;-77
2021/05/09 02:52:27;;;;;;;5.37;2.60;;;20.60;99.90;;;;;;5074588;28;20188;-75
2021/05/09 02:54:54;;;;;;;4.83;2.37;;;20.70;99.90;;;;;;5075189;28;20199;-77
2021/05/09 02:57:22;;;;;;;6.93;2.73;;;20.70;99.90;;;;;;5075100;28;20270;-75
2021/05/09 02:59:49;;;;;;;7.00;2.30;;;20.60;99.90;;;;;;5074853;28;20172;-77
2021/05/09 03:02:16;;;;;;;7.87;3.70;;;20.50;99.90;;;;;;5074700;28;20571;-76
2021/05/09 03:04:44;;;;;;;8.03;3.37;;;20.50;99.90;;;;;;5073653;28;20538;-76
2021/05/09 03:07:11;;;;;;;5.53;2.27;;;20.40;99.90;;;;;;5074724;28;20182;-76
2021/05/09 03:09:38;;;;;;;4.17;2.10;;;20.40;99.90;;;;;;5074872;28;20261;-76
2021/05/09 03:12:06;;;;;;;4.43;2.43;;;20.40;99.90;;;;;;5074549;28;20603;-75
2021/05/09 03:14:34;;;;;;;5.27;2.30;;;20.50;99.90;;;;;;5068784;28;20179;-76
2021/05/09 03:17:01;;;;;;;8.17;2.70;;;20.50;99.90;;;;;;5054881;28;20176;-77
2021/05/09 03:19:29;;;;;;;8.80;2.50;;;20.50;99.90;;;;;;5064532;28;20175;-76
2021/05/09 03:21:56;;;;;;;8.43;3.20;;;20.60;99.90;;;;;;5074723;28;20171;-77
2021/05/09 03:24:24;;;;;;;8.37;2.57;;;20.70;99.90;;;;;;5073859;28;20182;-76
2021/05/09 03:26:51;;;;;;;13.67;2.80;;;20.80;99.90;;;;;;5074372;28;20186;-75
2021/05/09 03:29:18;;;;;;;9.90;2.87;;;20.80;99.90;;;;;;5062578;28;20171;-76
2021/05/09 03:31:46;;;;;;;7.83;2.80;;;20.80;99.90;;;;;;5056233;28;20230;-77
2021/05/09 03:34:13;;;;;;;7.93;2.43;;;20.80;99.90;;;;;;5054801;28;20238;-77
2021/05/09 03:36:40;;;;;;;7.37;2.83;;;20.80;99.90;;;;;;5053876;28;20208;-77
2021/05/09 03:39:08;;;;;;;14.57;3.07;;;20.80;99.90;;;;;;5054504;28;20245;-76
2021/05/09 03:41:35;;;;;;;5.70;2.80;;;20.90;99.90;;;;;;5054555;28;20169;-76
2021/05/09 03:44:03;;;;;;;3.73;2.53;;;20.90;99.90;;;;;;5053833;28;20179;-77
2021/05/09 03:46:30;;;;;;;8.60;2.67;;;21.00;99.90;;;;;;5052274;28;20175;-76
2021/05/09 03:48:57;;;;;;;4.03;2.50;;;21.10;99.90;;;;;;5054145;28;20184;-76
2021/05/09 03:51:25;;;;;;;6.30;2.90;;;21.10;99.90;;;;;;5052682;28;20171;-76
2021/05/09 03:53:52;;;;;;;7.23;2.27;;;21.20;99.90;;;;;;5054010;28;20191;-75
2021/05/09 03:56:20;;;;;;;8.13;2.77;;;21.10;99.90;;;;;;5053588;28;20211;-76
2021/05/09 03:58:47;;;;;;;8.00;2.43;;;21.10;99.90;;;;;;5054221;28;20168;-75
2021/05/09 04:01:14;;;;;;;9.37;3.07;;;21.00;99.90;;;;;;5053964;28;20279;-75
2021/05/09 04:03:42;;;;;;;5.70;2.73;;;21.10;99.90;;;;;;5054222;28;20618;-77
2021/05/09 04:06:09;;;;;;;8.40;2.57;;;21.10;99.90;;;;;;5052610;28;20192;-77
2021/05/09 04:08:36;;;;;;;7.37;3.10;;;21.10;99.90;;;;;;5053723;28;20182;-77
2021/05/09 04:11:04;;;;;;;8.20;3.00;;;21.00;99.90;;;;;;5052725;28;20180;-74
2021/05/09 04:13:46;;;;;;;6.40;2.67;;;21.00;99.90;;;;;;5053709;28;20194;-77
2021/05/09 04:16:14;;;;;;;6.03;2.77;;;21.10;99.90;;;;;;5052402;28;20700;-77
2021/05/09 04:18:42;;;;;;;7.93;2.73;;;21.10;99.90;;;;;;5053773;28;20187;-76
2021/05/09 04:21:09;;;;;;;8.47;2.70;;;21.10;99.90;;;;;;5052807;28;20203;-76
2021/05/09 04:23:36;;;;;;;6.23;2.87;;;21.10;99.90;;;;;;5053618;28;20208;-76
2021/05/09 04:26:04;;;;;;;9.87;3.50;;;20.90;99.90;;;;;;5053463;28;20184;-77
2021/05/09 04:28:31;;;;;;;7.10;3.27;;;20.80;99.90;;;;;;5053319;28;20564;-76
2021/05/09 04:30:59;;;;;;;8.17;3.10;;;20.70;99.90;;;;;;5052749;28;20224;-77
2021/05/09 04:33:27;;;;;;;4.73;2.67;;;20.70;99.90;;;;;;5053280;28;20172;-77
2021/05/09 04:35:55;;;;;;;13.53;3.93;;;20.70;99.90;;;;;;5051682;28;20219;-75
2021/05/09 04:38:22;;;;;;;7.80;3.00;;;20.70;99.90;;;;;;5051723;28;20262;-77
2021/05/09 04:40:50;;;;;;;8.77;3.10;;;20.70;99.90;;;;;;5050629;28;20578;-78
2021/05/09 04:43:19;;;;;;;6.87;3.20;;;20.60;99.90;;;;;;5051999;28;20184;-77
2021/05/09 04:45:54;;;;;;;6.00;2.77;;;20.60;99.90;;;;;;5052965;28;20184;-77
2021/05/09 04:48:22;;;;;;;6.90;2.97;;;20.60;99.90;;;;;;5051707;28;20171;-76
2021/05/09 04:50:51;;;;;;;6.03;2.67;;;20.60;99.90;;;;;;5052982;28;20192;-77
2021/05/09 04:53:26;;;;;;;4.17;2.43;;;20.60;99.90;;;;;;5051731;28;20198;-76
2021/05/09 04:55:54;;;;;;;5.47;2.90;;;20.60;99.90;;;;;;5053102;28;20261;-77
2021/05/09 04:58:22;;;;;;;5.73;2.90;;;20.60;99.90;;;;;;5052717;28;20183;-76
2021/05/09 05:01:02;;;;;;;4.67;2.53;;;20.50;99.90;;;;;;5052971;28;20188;-77
2021/05/09 05:03:31;;;;;;;10.30;2.77;;;20.50;99.90;;;;;;5052302;28;20622;-77
2021/05/09 05:05:59;;;;;;;8.50;2.63;;;20.50;99.90;;;;;;5052617;28;20187;-78
2021/05/09 05:08:29;;;;;;;9.23;3.00;;;20.30;99.90;;;;;;5051288;28;20168;-75
2021/05/09 05:10:57;;;;;;;12.60;3.50;;;20.30;99.90;;;;;;5052815;28;20191;-77
2021/05/09 05:13:27;;;;;;;6.07;2.90;;;20.30;99.90;;;;;;5052522;28;20635;-77
2021/05/09 05:15:56;;;;;;;4.97;3.00;;;20.30;99.90;;;;;;5052577;28;20570;-76
2021/05/09 05:18:24;;;;;;;8.90;2.93;;;20.30;99.90;;;;;;5051426;28;20184;-76
2021/05/09 05:20:55;;;;;;;8.77;2.70;;;20.40;99.90;;;;;;5051031;28;20186;-77
2021/05/09 05:23:23;;;;;;;8.03;3.03;;;20.30;99.90;;;;;;5051770;28;20222;-76
2021/05/09 05:25:50;;;;;;;8.57;3.03;;;20.40;99.90;;;;;;5052703;28;20219;-74
2021/05/09 05:28:18;;;;;;;7.23;3.17;;;20.40;99.90;;;;;;5052321;28;20187;-78
2021/05/09 05:30:45;;;;;;;10.73;3.60;;;20.40;99.90;;;;;;5052304;28;20232;-78
2021/05/09 05:33:34;;;;;;;6.67;3.23;;;20.40;99.90;;;;;;5052648;28;20179;-78
2021/05/09 05:36:04;;;;;;;9.63;3.20;;;20.40;99.90;;;;;;5052531;28;20207;-78
2021/05/09 05:38:31;;;;;;;9.80;3.00;;;20.30;99.90;;;;;;5051941;28;20179;-77
2021/05/09 05:40:59;;;;;;;8.17;2.67;;;20.20;99.90;;;;;;5051451;28;20184;-77
2021/05/09 05:43:29;;;;;;;7.37;3.23;;;20.20;99.90;;;;;;5052651;28;20179;-76
2021/05/09 05:45:58;;;;;;;8.30;2.80;;;20.10;99.90;;;;;;5052697;28;20182;-76
2021/05/09 05:48:26;;;;;;;7.07;2.70;;;20.10;99.90;;;;;;5056729;28;20189;-77
2021/05/09 05:50:54;;;;;;;6.47;2.67;;;20.10;99.90;;;;;;5055747;28;20187;-78
2021/05/09 05:53:26;;;;;;;6.07;3.30;;;20.00;99.90;;;;;;5056919;28;20172;-78
2021/05/09 05:55:54;;;;;;;6.93;3.10;;;20.00;99.90;;;;;;5056732;28;20199;-78
2021/05/09 05:58:22;;;;;;;8.17;3.07;;;20.00;99.90;;;;;;5056353;28;20188;-76
2021/05/09 06:00:50;;;;;;;11.63;3.00;;;19.90;99.90;;;;;;5055896;28;20184;-75
2021/05/09 06:03:18;;;;;;;6.10;2.63;;;19.80;99.90;;;;;;5056411;28;20184;-76
2021/05/09 06:05:48;;;;;;;12.80;3.47;;;19.80;99.90;;;;;;5055834;28;20183;-79
2021/05/09 06:08:16;;;;;;;10.03;3.50;;;19.70;99.90;;;;;;5056150;28;20176;-76
2021/05/09 06:10:45;;;;;;;8.30;3.50;;;19.80;99.90;;;;;;5055627;28;20745;-78
2021/05/09 06:13:12;;;;;;;6.97;3.27;;;19.70;99.90;;;;;;5056191;28;20710;-77
2021/05/09 06:15:40;;;;;;;14.80;4.10;;;19.70;99.90;;;;;;5056112;28;20210;-75
2021/05/09 06:18:08;;;;;;;9.33;3.47;;;19.60;99.90;;;;;;5054527;28;20194;-76
2021/05/09 06:20:35;;;;;;;7.07;3.50;;;19.60;99.90;;;;;;5055546;28;20622;-77
2021/05/09 06:23:03;;;;;;;5.80;3.00;;;19.60;99.90;;;;;;5055307;28;20172;-77
2021/05/09 06:25:34;;;;;;;7.60;3.30;;;19.50;99.90;;;;;;5055736;28;20233;-78
2021/05/09 06:28:02;;;;;;;7.97;3.60;;;19.50;99.90;;;;;;5055880;28;20262;-79
2021/05/09 06:30:30;;;;;;;7.10;3.40;;;19.50;99.90;;;;;;5055291;28;20227;-77
2021/05/09 06:32:57;;;;;;;5.93;3.40;;;19.40;99.90;;;;;;5055977;28;20704;-78
2021/05/09 06:35:25;;;;;;;11.37;4.13;;;19.40;99.90;;;;;;5055155;28;20678;-78
2021/05/09 06:37:54;;;;;;;8.90;4.87;;;19.40;99.90;;;;;;5055575;28;20184;-78
2021/05/09 06:40:21;;;;;;;9.10;4.93;;;19.40;99.90;;;;;;5051596;28;20183;-78
2021/05/09 06:42:59;;;;;;;10.47;5.67;;;19.30;99.90;;;;;;5037601;28;20185;-77
2021/05/09 06:45:29;;;;;;;9.73;3.80;;;19.30;99.90;;;;;;5054449;28;20229;-78
2021/05/09 06:47:58;;;;;;;7.53;3.50;;;19.30;99.90;;;;;;5055562;28;20263;-79
2021/05/09 06:50:27;;;;;;;7.00;3.30;;;19.30;99.90;;;;;;5054363;28;20187;-76
2021/05/09 06:52:55;;;;;;;8.27;3.80;;;19.30;99.90;;;;;;5053914;28;20263;-74
2021/05/09 06:55:29;;;;;;;8.53;3.10;;;19.30;99.90;;;;;;5052227;28;20211;-74
2021/05/09 06:57:57;;;;;;;7.80;3.50;;;19.20;99.90;;;;;;5054628;28;20279;-75
2021/05/09 07:00:25;;;;;;;11.00;3.77;;;19.20;99.90;;;;;;5048282;28;20226;-74
2021/05/09 07:02:52;;;;;;;8.33;3.37;;;19.20;99.90;;;;;;5050176;28;20578;-76
2021/05/09 07:05:19;;;;;;;4.83;3.17;;;19.10;99.90;;;;;;5054838;28;20164;-75
2021/05/09 07:07:51;;;;;;;5.07;3.17;;;19.10;99.90;;;;;;5054628;28;20194;-76
2021/05/09 07:10:21;;;;;;;5.80;3.00;;;19.10;99.90;;;;;;5054523;28;20187;-76
2021/05/09 07:12:48;;;;;;;8.57;3.30;;;19.00;99.90;;;;;;5054677;28;20184;-78
2021/05/09 07:15:28;;;;;;;9.00;3.80;;;19.00;99.90;;;;;;5052658;28;20634;-78
2021/05/09 07:18:09;;;;;;;10.13;2.80;;;19.00;99.90;;;;;;5053437;28;20180;-76
2021/05/09 07:20:40;;;;;;;5.43;3.40;;;18.90;99.90;;;;;;5053537;28;20180;-75
2021/05/09 07:23:08;;;;;;;7.47;3.53;;;18.90;99.90;;;;;;5054007;28;20188;-77
2021/05/09 07:25:36;;;;;;;6.63;2.97;;;18.80;99.90;;;;;;5052197;28;20183;-72
2021/05/09 07:28:16;;;;;;;5.10;2.90;;;18.80;99.90;;;;;;5059423;28;20179;-76
2021/05/09 07:30:45;;;;;;;5.53;2.93;;;18.80;99.90;;;;;;5069551;28;20223;-76
2021/05/09 07:33:13;;;;;;;8.50;3.00;;;18.80;99.90;;;;;;5061590;28;20189;-76
2021/05/09 07:35:42;;;;;;;6.60;2.97;;;18.80;99.90;;;;;;5046998;28;20203;-74
2021/05/09 07:38:11;;;;;;;8.10;3.77;;;18.80;99.90;;;;;;5054170;28;20188;-77
2021/05/09 07:40:39;;;;;;;9.87;4.10;;;18.80;99.90;;;;;;5046607;28;20544;-77
2021/05/09 07:43:07;;;;;;;5.17;3.90;;;18.80;99.90;;;;;;5053998;28;20183;-75
2021/05/09 07:45:35;;;;;;;7.63;3.37;;;18.70;99.90;;;;;;5052672;28;20271;-77
2021/05/09 07:48:02;;;;;;;9.77;3.73;;;18.70;99.90;;;;;;5053419;28;20569;-75
2021/05/09 07:50:30;;;;;;;9.47;3.60;;;18.70;99.90;;;;;;5052277;28;20695;-77
2021/05/09 07:53:00;;;;;;;7.30;3.43;;;18.70;99.90;;;;;;5053394;28;20196;-77
2021/05/09 07:55:28;;;;;;;9.67;4.23;;;18.70;99.90;;;;;;5053174;28;20208;-75
2021/05/09 07:57:56;;;;;;;6.20;4.03;;;18.70;99.90;;;;;;5053707;28;20740;-77
2021/05/09 08:00:24;;;;;;;5.90;4.10;;;18.70;99.90;;;;;;5053554;28;20211;-75
2021/05/09 08:02:51;;;;;;;7.87;3.90;;;18.70;99.90;;;;;;5052762;28;20176;-78
2021/05/09 08:05:21;;;;;;;8.00;3.93;;;18.60;99.90;;;;;;5053088;28;20184;-75
2021/05/09 08:07:58;;;;;;;9.13;3.87;;;18.60;99.90;;;;;;5049834;28;20222;-74
2021/05/09 08:10:27;;;;;;;6.37;3.83;;;18.60;99.90;;;;;;5048399;28;20176;-78
2021/05/09 08:12:54;;;;;;;8.30;3.97;;;18.60;99.90;;;;;;5051595;28;20225;-76
2021/05/09 08:15:22;;;;;;;6.17;3.27;;;18.60;99.90;;;;;;5052114;28;20345;-74
2021/05/09 08:17:53;;;;;;;3.67;3.07;;;18.50;99.90;;;;;;5052186;28;20195;-76
2021/05/09 08:20:21;;;;;;;8.27;3.07;;;18.50;99.90;;;;;;5053127;28;20211;-75
2021/05/09 08:22:48;;;;;;;6.10;3.40;;;18.50;99.90;;;;;;5051458;28;20326;-75
2021/05/09 08:25:16;;;;;;;9.63;3.13;;;18.50;99.90;;;;;;5052412;28;20226;-77
2021/05/09 08:27:45;;;;;;;9.13;2.87;;;18.50;99.90;;;;;;5052075;28;20196;-72
2021/05/09 08:30:15;;;;;;;5.27;3.33;;;18.50;99.90;;;;;;5052972;28;20232;-74
2021/05/09 08:32:52;;;;;;;5.07;3.40;;;18.40;99.90;;;;;;5063721;27;20590;-76
2021/05/09 08:35:22;;;;;;;10.27;3.20;;;18.40;99.90;;;;;;5049920;28;20203;-77
2021/05/09 08:37:49;;;;;;;5.77;3.47;;;18.40;99.90;;;;;;5049671;28;20188;-72
2021/05/09 08:40:18;;;;;;;5.33;3.10;;;18.40;99.90;;;;;;5049480;28;20275;-74
2021/05/09 08:42:50;;;;;;;6.10;3.50;;;18.40;99.90;;;;;;5046428;28;20176;-73
2021/05/09 08:45:18;;;;;;;7.97;3.63;;;18.40;99.90;;;;;;5048651;28;20191;-77
2021/05/09 08:47:46;;;;;;;6.33;3.17;;;18.40;99.90;;;;;;5049004;28;20616;-74
2021/05/09 08:50:16;;;;;;;5.53;3.33;;;18.30;99.90;;;;;;5048698;28;20188;-77
2021/05/09 08:52:45;;;;;;;8.80;3.17;;;18.40;99.90;;;;;;5049460;28;20657;-75
2021/05/09 08:55:21;;;;;;;4.83;2.93;;;18.30;99.90;;;;;;5049173;28;20180;-79
2021/05/09 08:57:49;;;;;;;7.33;3.50;;;18.30;99.90;;;;;;5049574;28;20464;-76
2021/05/09 09:00:17;;;;;;;5.37;3.27;;;18.30;99.90;;;;;;5049392;28;20295;-73
2021/05/09 09:02:45;;;;;;;5.87;3.40;;;18.30;99.90;;;;;;5049012;28;20218;-76
2021/05/09 09:05:14;;;;;;;6.07;3.40;;;18.30;99.90;;;;;;5049265;28;20179;-77
2021/05/09 09:07:52;;;;;;;6.30;3.77;;;18.30;99.90;;;;;;5047216;28;20279;-73
2021/05/09 09:10:40;;;;;;;5.40;3.53;;;18.30;99.90;;;;;;5047036;28;20207;-77
2021/05/09 09:13:29;;;;;;;6.43;3.60;;;18.30;99.90;;;;;;5049002;28;20275;-75
2021/05/09 09:16:00;;;;;;;5.53;3.17;;;18.30;99.90;;;;;;5048125;28;20183;-73
2021/05/09 09:18:39;;;;;;;8.90;3.60;;;18.30;99.90;;;;;;5047494;28;20184;-76
2021/05/09 09:21:23;;;;;;;7.30;3.07;;;18.20;99.90;;;;;;5047589;28;20694;-77
2021/05/09 09:23:57;;;;;;;11.47;2.90;;;18.20;99.90;;;;;;5046021;28;20188;-76
2021/05/09 09:26:36;;;;;;;5.43;3.10;;;18.20;99.90;;;;;;5048278;28;20180;-76
2021/05/09 09:29:28;;;;;;;6.73;3.67;;;18.20;99.90;;;;;;5048133;28;20511;-75
2021/05/09 09:32:09;;;;;;;5.73;2.93;;;18.10;99.90;;;;;;5042640;28;20755;-76
2021/05/09 09:34:50;;;;;;;6.00;3.10;;;18.10;99.90;;;;;;5034847;28;20203;-76
2021/05/09 09:37:18;;;;;;;7.33;3.43;;;18.10;99.90;;;;;;5048119;28;20188;-76
2021/05/09 09:40:03;;;;;;;6.73;3.17;;;18.20;99.90;;;;;;5047955;28;20593;-71
2021/05/09 09:42:47;;;;;;;5.03;3.10;;;18.10;99.90;;;;;;5044329;28;20188;-75
2021/05/09 09:45:25;;;;;;;5.23;3.80;;;18.10;99.90;;;;;;5034990;28;20215;-73
2021/05/09 09:47:56;;;;;;;5.00;3.97;;;18.10;99.90;;;;;;5033962;28;20216;-74
2021/05/09 09:50:46;;;;;;;5.30;3.70;;;18.10;99.90;;;;;;5034895;28;20219;-77
2021/05/09 09:53:30;;;;;;;9.60;3.67;;;18.00;99.90;;;;;;5034487;28;20193;-76
2021/05/09 09:56:15;;;;;;;7.93;3.67;;;18.00;99.90;;;;;;5031774;28;20183;-76
2021/05/09 09:58:48;;;;;;;6.40;3.60;;;18.00;99.90;;;;;;5031317;28;20651;-77
2021/05/09 10:01:19;;;;;;;5.20;3.50;;;18.00;99.90;;;;;;5034321;28;20187;-75
2021/05/09 10:03:47;;;;;;;6.90;3.90;;;18.00;99.90;;;;;;5035261;28;20192;-77
2021/05/09 10:06:15;;;;;;;8.67;3.70;;;18.00;99.90;;;;;;5034839;28;20180;-75
2021/05/09 10:08:43;;;;;;;6.63;3.60;;;18.00;99.90;;;;;;5034654;28;20275;-75
2021/05/09 10:11:11;;;;;;;9.63;4.23;;;18.00;99.90;;;;;;5033131;28;20687;-75
2021/05/09 10:13:38;;;;;;;6.23;3.77;;;18.00;99.90;;;;;;5034620;28;20185;-77
2021/05/09 10:16:07;;;;;;;6.83;3.83;;;18.00;99.90;;;;;;5033778;28;20650;-74
2021/05/09 10:18:38;;;;;;;6.87;4.10;;;18.00;99.90;;;;;;5034466;28;20180;-77
2021/05/09 10:21:06;;;;;;;9.60;4.03;;;18.00;99.90;;;;;;5038304;28;20256;-75
2021/05/09 10:23:33;;;;;;;7.27;3.77;;;18.00;99.90;;;;;;5032482;28;20185;-75
2021/05/09 10:26:01;;;;;;;9.70;3.60;;;18.00;99.90;;;;;;5032854;28;20268;-76
2021/05/09 10:28:39;;;;;;;7.17;3.80;;;18.00;99.90;;;;;;5032404;28;20184;-77
2021/05/09 10:31:08;;;;;;;5.67;3.70;;;18.00;99.90;;;;;;5034059;28;20307;-76
2021/05/09 10:33:43;;;;;;;6.90;3.70;;;17.90;99.90;;;;;;5033009;28;20188;-78
2021/05/09 10:36:20;;;;;;;6.23;4.00;;;18.00;99.90;;;;;;5033419;28;20643;-77
2021/05/09 10:39:06;;;;;;;5.83;3.63;;;17.90;99.90;;;;;;5032372;28;20180;-77
2021/05/09 10:41:36;;;;;;;9.10;4.03;;;17.90;99.90;;;;;;5033457;28;20176;-77
2021/05/09 10:44:46;;;;;;;7.07;4.53;;;17.90;99.90;;;;;;5033279;28;20587;-75
2021/05/09 10:47:17;;;;;;;7.80;4.07;;;17.80;99.90;;;;;;5000809;28;20193;-76
2021/05/09 10:50:28;;;;;;;6.83;4.03;;;17.80;99.90;;;;;;5018235;28;20196;-73
2021/05/09 10:52:56;;;;;;;7.10;4.30;;;17.80;99.90;;;;;;5031688;28;20537;-79
2021/05/09 10:55:42;;;;;;;6.33;4.00;;;17.80;99.90;;;;;;5032980;28;20322;-78
2021/05/09 10:58:17;;;;;;;12.03;4.73;;;17.80;99.90;;;;;;5034218;28;20230;-78
2021/05/09 11:00:59;;;;;;;7.53;3.80;;;17.80;99.90;;;;;;5034101;28;20188;-76
2021/05/09 11:03:41;;;;;;;7.17;3.83;;;17.80;99.90;;;;;;5033844;28;20268;-78
2021/05/09 11:06:12;;;;;;;5.90;4.00;;;17.80;99.90;;;;;;5034154;28;20180;-78
2021/05/09 11:08:50;;;;;;;11.53;7.93;;;17.80;99.90;;;;;;5032122;28;20184;-77
2021/05/09 11:11:22;;;;;;;8.27;5.83;;;17.70;99.90;;;;;;5033444;28;20231;-75
2021/05/09 11:14:02;;;;;;;6.13;4.03;;;17.70;99.90;;;;;;5032503;28;20185;-75
2021/05/09 11:16:33;;;;;;;9.00;4.27;;;17.70;99.90;;;;;;5030965;28;20574;-76
2021/05/09 11:19:19;;;;;;;6.50;3.70;;;17.60;99.90;;;;;;5033155;28;20218;-73
2021/05/09 11:21:52;;;;;;;8.87;5.00;;;17.70;99.90;;;;;;5031209;28;20184;-77
2021/05/09 11:24:32;;;;;;;7.57;4.50;;;17.60;99.90;;;;;;5033060;28;20185;-78
2021/05/09 11:27:04;;;;;;;8.77;3.80;;;17.60;99.90;;;;;;5033318;28;20186;-74
2021/05/09 11:29:32;;;;;;;5.33;3.80;;;17.70;99.90;;;;;;5023235;28;20672;-76
2021/05/09 11:32:08;;;;;;;5.60;3.50;;;17.60;99.90;;;;;;5031985;28;20232;-78
2021/05/09 11:34:36;;;;;;;4.80;3.10;;;17.60;99.90;;;;;;5019179;28;20267;-78
2021/05/09 11:37:03;;;;;;;5.83;2.90;;;17.50;99.90;;;;;;5032281;28;20665;-76
2021/05/09 11:39:36;;;;;;;5.17;3.17;;;17.50;99.90;;;;;;5032079;28;20635;-76
2021/05/09 11:42:12;;;;;;;7.63;3.43;;;17.50;99.90;;;;;;5029339;28;20192;-75
2021/05/09 11:44:48;;;;;;;5.90;3.07;;;17.50;99.90;;;;;;5032000;28;20186;-77
2021/05/09 11:47:21;;;;;;;6.63;2.63;;;17.50;99.90;;;;;;5031789;28;20180;-77
2021/05/09 11:49:49;;;;;;;5.10;3.23;;;17.50;99.90;;;;;;5033182;28;20519;-78
2021/05/09 11:52:21;;;;;;;6.70;3.13;;;17.40;99.90;;;;;;5031562;28;20208;-77
2021/05/09 11:54:58;;;;;;;5.40;3.20;;;17.30;99.90;;;;;;5032107;28;20207;-74
2021/05/09 11:57:27;;;;;;;4.27;2.93;;;17.30;99.90;;;;;;5029816;28;20234;-75
2021/05/09 12:00:16;;;;;;;5.67;2.67;;;17.30;99.90;;;;;;5032622;28;20181;-77
2021/05/09 12:02:49;;;;;;;5.53;3.20;;;17.30;99.90;;;;;;5032460;28;20185;-75
2021/05/09 12:05:18;;;;;;;7.13;3.00;;;17.30;99.90;;;;;;5030882;28;20662;-77
2021/05/09 12:07:47;;;;;;;7.80;2.70;;;17.30;99.90;;;;;;5031555;28;20180;-76
2021/05/09 12:10:26;;;;;;;11.90;3.60;;;17.30;99.90;;;;;;5031784;28;20675;-75
2021/05/09 12:12:57;;;;;;;4.23;2.60;;;17.30;99.90;;;;;;5029335;28;20192;-77
2021/05/09 12:15:25;;;;;;;3.03;2.40;;;17.30;99.90;;;;;;5031822;28;20177;-77
2021/05/09 12:17:54;;;;;;;3.53;2.53;;;17.20;99.90;;;;;;5030617;28;20255;-76
2021/05/09 12:20:40;;;;;;;4.60;2.80;;;17.20;99.90;;;;;;5031154;28;20234;-78
2021/05/09 12:23:11;;;;;;;6.60;2.80;;;17.20;99.90;;;;;;5032073;28;20518;-77
2021/05/09 12:25:46;;;;;;;3.73;2.20;;;17.20;99.90;;;;;;5031747;28;20191;-76
2021/05/09 12:28:16;;;;;;;5.33;2.33;;;17.10;99.90;;;;;;5031036;28;20176;-77
2021/05/09 12:30:49;;;;;;;4.03;2.03;;;17.20;99.90;;;;;;5032329;28;20222;-77
2021/05/09 12:33:48;;;;;;;3.33;2.23;;;17.20;99.90;;;;;;5031832;28;20195;-77
2021/05/09 12:36:20;;;;;;;4.23;2.47;;;17.10;99.90;;;;;;5017227;28;20608;-73
2021/05/09 12:38:47;;;;;;;3.53;2.27;;;17.10;99.90;;;;;;5031564;28;20183;-78
2021/05/09 12:41:17;;;;;;;2.87;2.17;;;17.00;99.90;;;;;;5030539;28;20172;-72
2021/05/09 12:43:55;;;;;;;6.80;2.27;;;17.00;99.90;;;;;;5030712;28;20267;-77
2021/05/09 12:46:47;;;;;;;3.27;2.23;;;17.00;99.90;;;;;;5030669;28;20208;-78
2021/05/09 12:49:32;;;;;;;3.07;2.20;;;16.90;99.90;;;;;;5031854;28;20566;-78
2021/05/09 12:52:03;;;;;;;2.43;2.00;;;16.80;99.90;;;;;;5032421;28;20223;-74
2021/05/09 12:54:39;;;;;;;4.00;2.37;;;16.70;99.90;;;;;;5031546;28;20188;-76
2021/05/09 12:57:24;;;;;;;3.60;2.40;;;16.60;99.90;;;;;;5032328;28;20617;-77
2021/05/09 12:59:55;;;;;;;5.33;2.10;;;16.60;99.90;;;;;;5032050;28;20310;-78
2021/05/09 13:02:26;;;;;;;4.57;2.40;;;16.50;99.90;;;;;;5030598;28;20181;-78
2021/05/09 13:04:55;;;;;;;4.73;2.27;;;16.40;99.90;;;;;;5031848;28;20207;-77